Time;durP1;ratioP1;P1;durP2;ratioP2;P2;SDS_P1;SDS_P2;PMS_P1;PMS_P2;Temp;Humidity;BMP_temperature;BMP_pressure;BME280_temperature;BME280_humidity;BME280_pressure;Samples;Min_cycle;Max_cycle;Signal;HPM_P1;HPM_P2
2023/04/28 00:00:12;;;;;;;12.65;6.97;;;6.60;99.90;;;;;;4864171;28;95592;-33
2023/04/28 00:02:38;;;;;;;17.98;8.40;;;6.60;99.90;;;;;;4866428;28;93395;-30
2023/04/28 00:05:05;;;;;;;10.70;7.85;;;6.60;99.90;;;;;;4852801;28;94776;-31
2023/04/28 00:07:30;;;;;;;10.27;7.30;;;6.60;99.90;;;;;;4865270;28;94439;-29
2023/04/28 00:09:56;;;;;;;9.55;7.53;;;6.60;99.90;;;;;;4859794;28;94628;-30
2023/04/28 00:12:22;;;;;;;10.20;7.45;;;6.60;99.90;;;;;;4846704;28;93352;-31
2023/04/28 00:14:47;;;;;;;13.98;9.35;;;6.60;99.90;;;;;;4852270;28;95498;-30
2023/04/28 00:17:13;;;;;;;11.63;7.03;;;6.60;99.90;;;;;;4865537;28;94953;-31
2023/04/28 00:19:39;;;;;;;11.50;8.00;;;6.60;99.90;;;;;;4860357;28;94881;-30
2023/04/28 00:22:05;;;;;;;10.95;7.55;;;6.50;99.90;;;;;;4846851;28;93785;-30
2023/04/28 00:24:32;;;;;;;11.77;6.63;;;6.60;99.90;;;;;;4846222;28;92650;-30
2023/04/28 00:26:58;;;;;;;14.90;8.30;;;6.60;99.90;;;;;;4846732;28;95277;-31
2023/04/28 00:29:23;;;;;;;18.55;9.15;;;6.50;99.90;;;;;;4858491;28;94459;-31
2023/04/28 00:31:49;;;;;;;12.75;8.65;;;6.60;99.90;;;;;;4857425;28;93159;-30
2023/04/28 00:34:15;;;;;;;14.27;8.57;;;6.50;99.90;;;;;;4844457;28;94715;-34
2023/04/28 00:36:41;;;;;;;11.60;7.63;;;6.50;99.90;;;;;;4843082;28;94998;-31
2023/04/28 00:39:07;;;;;;;16.60;10.45;;;6.50;99.90;;;;;;4842049;28;94887;-34
2023/04/28 00:41:34;;;;;;;12.73;8.05;;;6.50;99.90;;;;;;4854421;28;94356;-31
2023/04/28 00:43:59;;;;;;;11.90;7.60;;;6.50;99.90;;;;;;4855487;28;93679;-33
2023/04/28 00:46:33;;;;;;;10.57;7.72;;;6.50;99.90;;;;;;4854653;28;95402;-31
2023/04/28 00:48:59;;;;;;;14.02;10.20;;;6.50;99.90;;;;;;4850246;28;95331;-30
2023/04/28 00:51:26;;;;;;;17.52;7.72;;;6.50;99.90;;;;;;4848507;28;93114;-30
2023/04/28 00:53:52;;;;;;;18.75;7.85;;;6.50;99.90;;;;;;4843890;28;95654;-32
2023/04/28 00:56:18;;;;;;;10.88;7.97;;;6.50;99.90;;;;;;4842909;28;93735;-31
2023/04/28 00:58:43;;;;;;;11.10;8.90;;;6.50;99.90;;;;;;4843704;28;94621;-32
2023/04/28 01:01:09;;;;;;;11.40;8.13;;;6.50;99.90;;;;;;4843688;28;94477;-34
2023/04/28 01:03:37;;;;;;;11.00;8.32;;;6.40;99.90;;;;;;4859616;28;92556;-32
2023/04/28 01:06:07;;;;;;;18.70;9.32;;;6.50;99.90;;;;;;4861032;28;95275;-35
2023/04/28 01:08:35;;;;;;;11.80;8.93;;;6.50;99.90;;;;;;4861482;28;95806;-31
2023/04/28 01:11:01;;;;;;;13.27;8.77;;;6.50;99.90;;;;;;4860001;28;94216;-34
2023/04/28 01:13:27;;;;;;;20.67;10.60;;;6.50;99.90;;;;;;4860780;28;93411;-31
2023/04/28 01:15:54;;;;;;;12.10;8.70;;;6.50;99.90;;;;;;4857369;28;95830;-31
2023/04/28 01:18:20;;;;;;;15.88;10.23;;;6.50;99.90;;;;;;4860713;28;96933;-30
2023/04/28 01:20:45;;;;;;;14.38;9.05;;;6.50;99.90;;;;;;4858252;28;95808;-30
2023/04/28 01:23:12;;;;;;;18.13;10.32;;;6.50;99.90;;;;;;4860088;28;94229;-32
2023/04/28 01:25:38;;;;;;;13.95;10.02;;;6.50;99.90;;;;;;4858348;28;94723;-29
2023/04/28 01:28:04;;;;;;;16.70;10.35;;;6.50;99.90;;;;;;4859196;28;94556;-36
2023/04/28 01:30:29;;;;;;;13.95;9.43;;;6.50;99.90;;;;;;4858629;28;93681;-30
2023/04/28 01:32:55;;;;;;;13.98;9.45;;;6.50;99.90;;;;;;4859965;28;94379;-32
2023/04/28 01:35:21;;;;;;;16.98;9.43;;;6.50;99.90;;;;;;4858921;28;95791;-34
2023/04/28 01:37:46;;;;;;;19.40;9.77;;;6.50;99.90;;;;;;4848709;28;96368;-32
2023/04/28 01:40:12;;;;;;;12.27;10.65;;;6.50;99.90;;;;;;4859924;28;94386;-32
2023/04/28 01:42:38;;;;;;;16.95;10.52;;;6.50;99.90;;;;;;4859386;28;92676;-31
2023/04/28 01:45:04;;;;;;;11.20;8.20;;;6.50;99.90;;;;;;4856842;28;95054;-33
2023/04/28 01:47:30;;;;;;;14.30;10.25;;;6.50;99.90;;;;;;4859936;28;94119;-30
2023/04/28 01:49:56;;;;;;;19.25;11.88;;;6.40;99.90;;;;;;4857670;28;93375;-34
2023/04/28 01:52:23;;;;;;;13.38;9.18;;;6.50;99.90;;;;;;4858532;28;93224;-34
2023/04/28 01:54:49;;;;;;;16.48;10.25;;;6.50;99.90;;;;;;4857861;28;94743;-31
2023/04/28 01:57:15;;;;;;;12.38;10.02;;;6.50;99.90;;;;;;4847263;28;94200;-31
2023/04/28 01:59:41;;;;;;;19.35;12.10;;;6.50;99.90;;;;;;4857492;28;95410;-33
2023/04/28 02:02:06;;;;;;;14.35;9.38;;;6.50;99.90;;;;;;4848896;28;94022;-32
2023/04/28 02:04:32;;;;;;;16.10;10.35;;;6.50;99.90;;;;;;4847282;28;95261;-32
2023/04/28 02:06:57;;;;;;;24.55;11.48;;;6.50;99.90;;;;;;4860393;28;94381;-29
2023/04/28 02:09:23;;;;;;;18.02;11.13;;;6.50;99.90;;;;;;4859250;28;94300;-33
2023/04/28 02:11:49;;;;;;;17.13;9.98;;;6.50;99.90;;;;;;4860356;28;92665;-33
2023/04/28 02:14:15;;;;;;;14.10;9.20;;;6.50;99.90;;;;;;4845874;28;94306;-31
2023/04/28 02:16:40;;;;;;;21.65;10.75;;;6.50;99.90;;;;;;4849946;28;94503;-30
2023/04/28 02:19:06;;;;;;;15.43;9.00;;;6.50;99.90;;;;;;4859000;28;92735;-35
2023/04/28 02:21:32;;;;;;;18.42;11.27;;;6.50;99.90;;;;;;4841284;28;92230;-30
2023/04/28 02:23:57;;;;;;;19.30;10.13;;;6.50;99.90;;;;;;4840083;28;97329;-32
2023/04/28 02:26:23;;;;;;;16.58;11.27;;;6.50;99.90;;;;;;4841003;28;95502;-33
2023/04/28 02:28:49;;;;;;;15.27;9.88;;;6.50;99.90;;;;;;4841812;28;93149;-33
2023/04/28 02:31:15;;;;;;;23.30;12.65;;;6.50;99.90;;;;;;4854011;28;93615;-29
2023/04/28 02:33:43;;;;;;;13.48;10.77;;;6.50;99.90;;;;;;4841001;28;94561;-34
2023/04/28 02:36:09;;;;;;;21.85;12.27;;;6.50;99.90;;;;;;4840978;28;94659;-34
2023/04/28 02:38:35;;;;;;;14.85;10.45;;;6.50;99.90;;;;;;4853779;28;92152;-33
2023/04/28 02:41:03;;;;;;;18.15;10.32;;;6.50;99.90;;;;;;4841436;28;93992;-30
2023/04/28 02:43:30;;;;;;;15.68;11.57;;;6.50;99.90;;;;;;4854405;28;94614;-36
2023/04/28 02:45:56;;;;;;;18.35;9.82;;;6.50;99.90;;;;;;4859809;28;95572;-32
2023/04/28 02:48:25;;;;;;;17.63;11.38;;;6.50;99.90;;;;;;4859429;28;96599;-31
2023/04/28 02:50:51;;;;;;;14.20;8.73;;;6.50;99.90;;;;;;4859432;28;92897;-32
2023/04/28 02:53:18;;;;;;;15.43;10.73;;;6.50;99.90;;;;;;4859210;28;94416;-35
2023/04/28 02:55:44;;;;;;;24.20;12.60;;;6.50;99.90;;;;;;4857832;28;94331;-31
2023/04/28 02:58:09;;;;;;;29.77;13.43;;;6.50;99.90;;;;;;4858579;28;95479;-30
2023/04/28 03:00:35;;;;;;;16.00;13.02;;;6.50;99.90;;;;;;4851004;28;94171;-30
2023/04/28 03:03:01;;;;;;;22.27;12.05;;;6.40;99.90;;;;;;4852213;28;94177;-30
2023/04/28 03:05:27;;;;;;;21.90;12.98;;;6.40;99.90;;;;;;4841211;28;94574;-34
2023/04/28 03:07:52;;;;;;;16.48;10.85;;;6.40;99.90;;;;;;4842196;28;94271;-30
2023/04/28 03:10:18;;;;;;;20.85;13.40;;;6.40;99.90;;;;;;4840948;28;93194;-31
2023/04/28 03:12:44;;;;;;;17.13;9.55;;;6.40;99.90;;;;;;4841580;28;95786;-32
2023/04/28 03:15:10;;;;;;;16.60;11.60;;;6.30;99.90;;;;;;4849783;28;95866;-31
2023/04/28 03:17:37;;;;;;;17.85;13.07;;;6.20;99.90;;;;;;4857887;28;94911;-34
2023/04/28 03:20:04;;;;;;;23.63;10.75;;;6.20;99.90;;;;;;4859753;28;93497;-33
2023/04/28 03:22:30;;;;;;;17.45;11.38;;;6.20;99.90;;;;;;4856242;28;95196;-31
2023/04/28 03:24:55;;;;;;;33.13;13.98;;;6.10;99.90;;;;;;4842629;28;94804;-33
2023/04/28 03:27:21;;;;;;;20.10;12.90;;;6.10;99.90;;;;;;4844655;28;94621;-32
2023/04/28 03:29:47;;;;;;;15.10;10.88;;;6.10;99.90;;;;;;4842248;28;91496;-31
2023/04/28 03:32:12;;;;;;;23.08;12.50;;;6.00;99.90;;;;;;4854103;28;94484;-34
2023/04/28 03:34:38;;;;;;;18.45;11.68;;;6.00;99.90;;;;;;4842184;28;95129;-34
2023/04/28 03:37:04;;;;;;;19.77;11.38;;;6.00;99.90;;;;;;4844075;28;94199;-32
2023/04/28 03:39:29;;;;;;;18.83;12.45;;;6.00;99.90;;;;;;4842621;28;92162;-31
2023/04/28 03:41:55;;;;;;;27.55;13.32;;;6.00;99.90;;;;;;4843651;28;94563;-33
2023/04/28 03:44:22;;;;;;;21.42;12.93;;;6.00;99.90;;;;;;4842265;28;94417;-31
2023/04/28 03:46:48;;;;;;;18.95;12.18;;;6.00;99.90;;;;;;4842499;28;92340;-33
2023/04/28 03:49:14;;;;;;;20.90;12.48;;;6.00;99.90;;;;;;4841799;28;92729;-30
2023/04/28 03:51:39;;;;;;;19.90;13.07;;;6.00;99.90;;;;;;4853455;28;94918;-31
2023/04/28 03:54:05;;;;;;;19.45;12.63;;;6.00;99.90;;;;;;4850327;28;94603;-31
2023/04/28 03:56:31;;;;;;;18.98;11.40;;;5.90;99.90;;;;;;4858624;28;93763;-34
2023/04/28 03:58:57;;;;;;;21.58;13.57;;;6.00;99.90;;;;;;4840496;28;92459;-33
2023/04/28 04:01:23;;;;;;;22.23;13.15;;;5.90;99.90;;;;;;4854443;28;95534;-31
2023/04/28 04:03:48;;;;;;;22.25;12.98;;;5.90;99.90;;;;;;4892679;23;95455;-32
2023/04/28 04:06:14;;;;;;;23.98;14.05;;;5.90;99.90;;;;;;4863878;28;93634;-30
2023/04/28 04:08:40;;;;;;;18.10;13.73;;;5.90;99.90;;;;;;4881094;28;93430;-31
2023/04/28 04:11:06;;;;;;;17.30;12.30;;;5.90;99.90;;;;;;4867821;28;94231;-34
2023/04/28 04:13:32;;;;;;;20.52;14.60;;;5.90;99.90;;;;;;4881100;28;94496;-32
2023/04/28 04:15:57;;;;;;;17.27;12.32;;;5.80;99.90;;;;;;4865920;28;93695;-32
2023/04/28 04:18:23;;;;;;;19.65;12.85;;;5.90;99.90;;;;;;4869354;28;92578;-33
2023/04/28 04:20:49;;;;;;;21.10;13.65;;;5.80;99.90;;;;;;4878751;28;94742;-30
2023/04/28 04:23:15;;;;;;;17.95;12.10;;;5.80;99.90;;;;;;4861727;28;95473;-31
2023/04/28 04:25:41;;;;;;;21.08;13.70;;;5.90;99.90;;;;;;4862694;28;95098;-33
2023/04/28 04:28:07;;;;;;;20.27;15.38;;;5.90;99.90;;;;;;4862032;28;92160;-33
2023/04/28 04:30:32;;;;;;;27.27;14.93;;;5.80;99.90;;;;;;4874932;28;95143;-31
2023/04/28 04:32:58;;;;;;;23.30;13.30;;;5.80;99.90;;;;;;4863043;28;94973;-31
2023/04/28 04:35:24;;;;;;;20.52;12.32;;;5.90;99.90;;;;;;4862823;28;92189;-32
2023/04/28 04:37:50;;;;;;;20.38;13.23;;;5.90;99.90;;;;;;4862797;28;94556;-32
2023/04/28 04:40:15;;;;;;;19.27;12.57;;;5.90;99.90;;;;;;4862716;28;94786;-33
2023/04/28 04:42:41;;;;;;;18.55;11.55;;;5.90;99.90;;;;;;4862694;28;94633;-35
2023/04/28 04:45:07;;;;;;;20.75;11.90;;;5.90;99.90;;;;;;4863146;28;94734;-33
2023/04/28 04:47:33;;;;;;;16.48;11.95;;;6.00;99.90;;;;;;4862097;28;93021;-31
2023/04/28 04:49:58;;;;;;;16.13;13.20;;;6.00;99.90;;;;;;4862615;28;95924;-32
2023/04/28 04:52:24;;;;;;;18.75;12.85;;;6.00;99.90;;;;;;4861611;28;96818;-31
2023/04/28 04:54:50;;;;;;;21.33;13.80;;;6.00;99.90;;;;;;4877393;28;92677;-29
2023/04/28 04:57:16;;;;;;;28.73;15.57;;;6.00;99.90;;;;;;4880037;28;94368;-32
2023/04/28 04:59:41;;;;;;;19.58;11.80;;;6.00;99.90;;;;;;4878972;28;93267;-35
2023/04/28 05:02:07;;;;;;;17.27;11.75;;;6.00;99.90;;;;;;4877378;28;94691;-31
2023/04/28 05:04:32;;;;;;;18.83;12.07;;;6.10;99.90;;;;;;4879645;28;94763;-30
2023/04/28 05:06:58;;;;;;;16.27;11.20;;;6.10;99.90;;;;;;4881185;28;92144;-31
2023/04/28 05:09:24;;;;;;;22.83;16.35;;;6.10;99.90;;;;;;4879367;28;94573;-31
2023/04/28 05:11:49;;;;;;;17.05;12.90;;;6.10;99.90;;;;;;4879731;28;96601;-35
2023/04/28 05:14:16;;;;;;;21.58;14.50;;;6.10;99.90;;;;;;4879226;28;95446;-32
2023/04/28 05:16:42;;;;;;;19.05;13.18;;;6.20;99.90;;;;;;4879383;28;92184;-31
2023/04/28 05:19:08;;;;;;;22.95;12.68;;;6.20;99.90;;;;;;4878572;28;94719;-32
2023/04/28 05:21:33;;;;;;;19.65;13.45;;;6.20;99.90;;;;;;4879128;28;94461;-31
2023/04/28 05:23:59;;;;;;;17.05;11.32;;;6.20;99.90;;;;;;4879504;28;94884;-35
2023/04/28 05:26:25;;;;;;;16.88;11.77;;;6.30;99.90;;;;;;4879606;28;94243;-32
2023/04/28 05:28:51;;;;;;;18.80;12.13;;;6.30;99.90;;;;;;4878786;28;94525;-31
2023/04/28 05:31:16;;;;;;;21.45;14.00;;;6.40;99.90;;;;;;4880234;28;94357;-30
2023/04/28 05:33:42;;;;;;;22.17;12.40;;;6.40;99.90;;;;;;4879220;28;93334;-32
2023/04/28 05:36:08;;;;;;;17.75;12.00;;;6.40;99.90;;;;;;4879765;28;94385;-31
2023/04/28 05:38:34;;;;;;;19.60;11.70;;;6.50;99.90;;;;;;4878700;28;94330;-31
2023/04/28 05:41:01;;;;;;;16.17;11.68;;;6.50;99.90;;;;;;4879600;28;95845;-31
2023/04/28 05:43:27;;;;;;;22.35;14.02;;;6.60;99.90;;;;;;4879420;28;94273;-33
2023/04/28 05:45:52;;;;;;;18.38;12.93;;;6.70;99.90;;;;;;4879061;28;93482;-33
2023/04/28 05:48:18;;;;;;;16.95;11.75;;;6.70;99.90;;;;;;4878700;28;94812;-33
2023/04/28 05:50:44;;;;;;;18.13;11.52;;;6.80;99.90;;;;;;4879573;28;94474;-29
2023/04/28 05:53:10;;;;;;;11.20;9.63;;;6.90;99.90;;;;;;4879268;28;92410;-32
2023/04/28 05:55:35;;;;;;;18.05;10.00;;;6.90;99.90;;;;;;4880455;28;93497;-35
2023/04/28 05:58:02;;;;;;;18.30;10.65;;;7.00;99.90;;;;;;4878360;28;94359;-30
2023/04/28 06:00:27;;;;;;;14.88;11.38;;;7.00;99.90;;;;;;4878915;28;94425;-32
2023/04/28 06:02:53;;;;;;;19.52;10.57;;;7.00;99.90;;;;;;4866031;28;94720;-29
2023/04/28 06:05:19;;;;;;;13.15;9.95;;;7.00;99.90;;;;;;4859904;28;92103;-30
2023/04/28 06:07:45;;;;;;;17.88;11.77;;;7.00;99.90;;;;;;4876664;28;95289;-30
2023/04/28 06:10:11;;;;;;;14.30;10.68;;;7.00;99.90;;;;;;4871541;28;94257;-30
2023/04/28 06:12:37;;;;;;;12.98;9.70;;;7.00;99.90;;;;;;4860322;28;94150;-32
2023/04/28 06:15:03;;;;;;;20.23;11.48;;;7.10;99.90;;;;;;4861290;28;92198;-30
2023/04/28 06:17:31;;;;;;;16.13;8.98;;;7.00;99.90;;;;;;4860877;28;95379;-35
2023/04/28 06:19:58;;;;;;;10.25;9.07;;;7.10;99.90;;;;;;4880146;28;93053;-32
2023/04/28 06:22:24;;;;;;;13.98;10.00;;;7.10;99.90;;;;;;4877425;28;93100;-35
2023/04/28 06:24:50;;;;;;;18.42;11.88;;;7.10;99.90;;;;;;4878705;28;93203;-34
2023/04/28 06:27:16;;;;;;;15.07;10.18;;;7.20;99.90;;;;;;4877534;28;95769;-32
2023/04/28 06:29:41;;;;;;;17.95;11.25;;;7.10;99.90;;;;;;4860202;28;95456;-29
2023/04/28 06:32:07;;;;;;;22.52;12.02;;;7.10;99.90;;;;;;4870807;28;93391;-32
2023/04/28 06:34:33;;;;;;;18.15;9.27;;;7.10;99.90;;;;;;4860138;28;92729;-32
2023/04/28 06:36:59;;;;;;;17.92;12.63;;;7.10;99.90;;;;;;4861972;28;94773;-32
2023/04/28 06:39:25;;;;;;;16.23;11.80;;;7.10;99.90;;;;;;4871116;28;94565;-32
2023/04/28 06:41:51;;;;;;;13.10;11.50;;;7.10;99.90;;;;;;4861112;28;93362;-33
2023/04/28 06:44:17;;;;;;;17.15;11.32;;;7.10;99.90;;;;;;4859859;28;93919;-29
2023/04/28 06:46:42;;;;;;;15.15;10.13;;;7.10;99.90;;;;;;4862337;28;94479;-32
2023/04/28 06:49:08;;;;;;;21.33;12.50;;;7.10;99.90;;;;;;4876333;28;94235;-32
2023/04/28 06:51:33;;;;;;;23.73;11.73;;;7.10;99.90;;;;;;4875847;28;94116;-30
2023/04/28 06:53:59;;;;;;;13.93;10.70;;;7.10;99.90;;;;;;4878350;28;94136;-31
2023/04/28 06:56:25;;;;;;;18.85;11.65;;;7.10;99.90;;;;;;4875270;28;94658;-35
2023/04/28 06:58:51;;;;;;;11.05;9.68;;;7.10;99.90;;;;;;4878629;28;94736;-30
2023/04/28 07:01:17;;;;;;;19.08;11.93;;;7.20;99.90;;;;;;4875208;28;93284;-31
2023/04/28 07:03:43;;;;;;;13.82;9.77;;;7.20;99.90;;;;;;4878478;28;94330;-31
2023/04/28 07:06:08;;;;;;;12.18;10.77;;;7.20;99.90;;;;;;4864394;28;94924;-32
2023/04/28 07:08:35;;;;;;;14.70;9.93;;;7.20;99.90;;;;;;4860297;28;94760;-29
2023/04/28 07:11:03;;;;;;;18.13;11.48;;;7.20;99.90;;;;;;4861403;28;92737;-34
2023/04/28 07:13:29;;;;;;;14.05;12.43;;;7.30;99.90;;;;;;4859586;28;93441;-30
2023/04/28 07:15:55;;;;;;;17.80;11.60;;;7.30;99.90;;;;;;4858293;28;95941;-30
2023/04/28 07:18:20;;;;;;;13.80;10.73;;;7.30;99.90;;;;;;4865411;28;96320;-31
2023/04/28 07:20:47;;;;;;;17.92;10.48;;;7.30;99.90;;;;;;4878035;28;95223;-30
2023/04/28 07:23:13;;;;;;;17.75;10.13;;;7.50;99.90;;;;;;4871143;28;92986;-30
2023/04/28 07:25:40;;;;;;;13.85;9.98;;;7.50;99.90;;;;;;4860057;28;94784;-30
2023/04/28 07:28:06;;;;;;;12.38;10.30;;;7.50;99.90;;;;;;4874444;28;94026;-32
2023/04/28 07:30:32;;;;;;;18.83;11.35;;;7.50;99.90;;;;;;4877601;28;93803;-34
2023/04/28 07:32:57;;;;;;;18.35;11.63;;;7.60;99.90;;;;;;4877846;28;91823;-30
2023/04/28 07:35:24;;;;;;;22.25;10.60;;;7.70;99.90;;;;;;4874898;28;94950;-34
2023/04/28 07:37:49;;;;;;;17.80;11.70;;;7.70;99.90;;;;;;4873650;28;95077;-30
2023/04/28 07:40:16;;;;;;;20.58;14.55;;;7.70;99.90;;;;;;4872704;28;95728;-30
2023/04/28 07:42:41;;;;;;;19.25;10.00;;;7.80;99.90;;;;;;4875284;28;92186;-31
2023/04/28 07:45:07;;;;;;;16.42;10.23;;;7.80;99.90;;;;;;4874958;28;95715;-31
2023/04/28 07:47:33;;;;;;;15.07;11.00;;;7.90;99.90;;;;;;4876372;28;95267;-30
2023/04/28 07:50:03;;;;;;;13.70;9.68;;;8.00;99.90;;;;;;4874288;28;94988;-32
2023/04/28 07:52:29;;;;;;;12.30;8.98;;;7.90;99.90;;;;;;4876210;28;92158;-33
2023/04/28 07:54:55;;;;;;;13.85;9.77;;;8.00;99.90;;;;;;4878053;28;94729;-29
2023/04/28 07:57:20;;;;;;;14.68;9.88;;;8.00;99.90;;;;;;4869226;28;94769;-30
2023/04/28 07:59:46;;;;;;;17.42;10.10;;;8.00;99.90;;;;;;4865117;28;93196;-30
2023/04/28 08:02:13;;;;;;;12.15;7.70;;;8.20;99.90;;;;;;4889784;28;92292;-33
2023/04/28 08:04:38;;;;;;;12.90;9.57;;;8.20;99.90;;;;;;4879890;28;95226;-32
2023/04/28 08:07:04;;;;;;;11.45;9.35;;;8.20;99.90;;;;;;4880272;28;96563;-31
2023/04/28 08:09:30;;;;;;;9.45;7.40;;;8.40;99.90;;;;;;4880881;28;92626;-31
2023/04/28 08:11:57;;;;;;;13.43;9.30;;;8.40;99.90;;;;;;4880603;28;93395;-32
2023/04/28 08:14:23;;;;;;;14.48;9.15;;;8.50;99.90;;;;;;4879814;28;95156;-31
2023/04/28 08:16:50;;;;;;;11.77;8.73;;;8.70;99.90;;;;;;4880746;28;94281;-32
2023/04/28 08:19:16;;;;;;;13.77;9.65;;;8.70;99.90;;;;;;4881072;28;92653;-33
2023/04/28 08:21:42;;;;;;;18.48;10.75;;;8.70;99.90;;;;;;4881747;28;92904;-32
2023/04/28 08:24:09;;;;;;;16.02;9.38;;;8.80;99.90;;;;;;4879918;28;94419;-35
2023/04/28 08:26:36;;;;;;;13.02;9.85;;;8.90;99.90;;;;;;4879662;28;94542;-31
2023/04/28 08:29:01;;;;;;;11.98;8.70;;;9.00;99.90;;;;;;4879751;28;94345;-32
2023/04/28 08:31:27;;;;;;;9.95;8.35;;;9.10;99.90;;;;;;4881494;28;92930;-32
2023/04/28 08:33:53;;;;;;;9.80;8.43;;;9.20;99.90;;;;;;4880478;28;93563;-30
2023/04/28 08:36:18;;;;;;;14.75;9.77;;;9.20;99.90;;;;;;4881050;28;94088;-35
2023/04/28 08:38:44;;;;;;;23.17;10.35;;;9.30;99.90;;;;;;4878271;28;92463;-33
2023/04/28 08:41:14;;;;;;;11.20;8.98;;;9.40;99.90;;;;;;4879661;28;94920;-30
2023/04/28 08:43:41;;;;;;;11.02;8.77;;;9.60;99.90;;;;;;4880378;28;94064;-31
2023/04/28 08:46:08;;;;;;;12.80;8.37;;;9.70;99.90;;;;;;4885173;28;95023;-31
2023/04/28 08:48:47;;;;;;;12.75;7.85;;;9.80;99.90;;;;;;4877975;28;94416;-31
2023/04/28 08:51:15;;;;;;;9.27;8.10;;;9.90;99.90;;;;;;4877538;28;92385;-32
2023/04/28 08:53:48;;;;;;;9.48;8.43;;;10.00;99.90;;;;;;4874661;28;97129;-31
2023/04/28 08:56:15;;;;;;;10.48;8.52;;;10.00;99.90;;;;;;4876466;28;96218;-31
2023/04/28 08:58:41;;;;;;;18.63;10.35;;;10.00;99.90;;;;;;4870225;28;94075;-30
2023/04/28 09:01:08;;;;;;;13.40;9.98;;;10.10;99.90;;;;;;4864035;28;94760;-32
2023/04/28 09:03:33;;;;;;;10.70;8.32;;;10.10;99.90;;;;;;4863647;28;94225;-33
2023/04/28 09:06:01;;;;;;;12.10;9.00;;;10.10;99.90;;;;;;4864970;28;94305;-33
2023/04/28 09:08:27;;;;;;;11.63;9.82;;;10.00;99.90;;;;;;4872340;28;94576;-33
2023/04/28 09:11:09;;;;;;;14.75;11.13;;;10.00;99.90;;;;;;4867143;28;92554;-32
2023/04/28 09:13:36;;;;;;;12.75;10.90;;;10.00;99.90;;;;;;4862147;28;94793;-33
2023/04/28 09:16:02;;;;;;;11.85;10.23;;;10.00;99.90;;;;;;4875199;28;93996;-32
2023/04/28 09:18:32;;;;;;;15.05;10.77;;;10.00;99.90;;;;;;4870000;28;94203;-33
2023/04/28 09:21:09;;;;;;;12.40;9.38;;;10.10;99.90;;;;;;4875417;28;92984;-30
2023/04/28 09:23:48;;;;;;;13.13;10.50;;;10.20;99.90;;;;;;4861763;28;94761;-34
2023/04/28 09:26:13;;;;;;;18.40;10.20;;;10.20;99.90;;;;;;4876354;28;94338;-30
2023/04/28 09:28:39;;;;;;;10.20;9.18;;;10.40;99.90;;;;;;4867710;28;93570;-35
2023/04/28 09:31:05;;;;;;;14.85;10.50;;;10.50;99.90;;;;;;4861924;28;94029;-33
2023/04/28 09:33:30;;;;;;;12.95;9.82;;;10.70;99.90;;;;;;4862292;28;95051;-33
2023/04/28 09:35:56;;;;;;;13.52;10.07;;;10.70;99.90;;;;;;4861503;28;93176;-33
2023/04/28 09:38:22;;;;;;;13.55;9.55;;;10.80;99.90;;;;;;4863475;28;94131;-32
2023/04/28 09:40:52;;;;;;;14.13;11.18;;;10.80;99.90;;;;;;4871932;28;94202;-34
2023/04/28 09:43:32;;;;;;;13.15;9.90;;;10.90;99.90;;;;;;4862549;28;95186;-34
2023/04/28 09:46:04;;;;;;;13.18;10.88;;;11.00;99.90;;;;;;4876196;28;95523;-34
2023/04/28 09:48:39;;;;;;;12.98;10.07;;;11.00;99.90;;;;;;4858921;28;93775;-33
2023/04/28 09:51:06;;;;;;;13.57;11.85;;;11.10;99.90;;;;;;4858946;28;95172;-33
2023/04/28 09:53:33;;;;;;;14.48;10.05;;;11.10;99.90;;;;;;4865023;28;94879;-34
2023/04/28 09:56:02;;;;;;;14.55;10.88;;;11.10;99.90;;;;;;4875461;28;94431;-31
2023/04/28 09:58:29;;;;;;;13.20;10.68;;;11.10;99.90;;;;;;4865716;28;92451;-30
2023/04/28 10:00:59;;;;;;;16.30;10.88;;;11.20;99.90;;;;;;4876663;28;91708;-35
2023/04/28 10:03:27;;;;;;;16.00;11.70;;;11.40;99.90;;;;;;4867504;28;94516;-31
2023/04/28 10:05:53;;;;;;;13.80;10.37;;;11.50;99.90;;;;;;4856911;28;94673;-31
2023/04/28 10:08:23;;;;;;;16.88;12.30;;;11.70;99.90;;;;;;4857953;28;94445;-31
2023/04/28 10:10:53;;;;;;;12.20;10.60;;;11.90;99.90;;;;;;4861021;28;92953;-32
2023/04/28 10:13:20;;;;;;;12.27;10.98;;;12.00;99.90;;;;;;4866175;28;93430;-32
2023/04/28 10:15:45;;;;;;;13.48;12.07;;;12.30;99.90;;;;;;4872561;28;96472;-31
2023/04/28 10:18:13;;;;;;;11.30;10.20;;;12.40;99.90;;;;;;4874912;28;94663;-32
2023/04/28 10:20:42;;;;;;;14.48;11.13;;;12.80;99.90;;;;;;4869473;28;94033;-31
2023/04/28 10:23:23;;;;;;;14.65;11.35;;;12.90;99.90;;;;;;4868861;28;94396;-31
2023/04/28 10:25:56;;;;;;;11.57;10.40;;;13.10;99.90;;;;;;4872770;28;94165;-34
2023/04/28 10:28:22;;;;;;;11.38;9.38;;;13.10;99.90;;;;;;4868267;28;92359;-30
2023/04/28 10:31:33;;;;;;;18.70;12.07;;;13.00;99.90;;;;;;4874155;28;93356;-31
2023/04/28 10:34:23;;;;;;;17.48;11.02;;;13.10;99.90;;;;;;4858036;28;95238;-30
2023/04/28 10:36:51;;;;;;;16.42;11.88;;;13.10;99.90;;;;;;4868048;28;95297;-32
2023/04/28 10:39:17;;;;;;;20.17;11.45;;;13.20;99.90;;;;;;4870759;28;94187;-33
2023/04/28 10:41:45;;;;;;;12.57;11.27;;;13.20;99.90;;;;;;4875354;28;94778;-30
2023/04/28 10:44:29;;;;;;;14.63;11.88;;;13.20;99.90;;;;;;4875806;28;94174;-31
2023/04/28 10:47:06;;;;;;;15.57;10.05;;;13.20;99.90;;;;;;4875239;28;95004;-32
2023/04/28 10:49:57;;;;;;;12.80;10.83;;;13.20;99.90;;;;;;4875692;28;94351;-35
2023/04/28 10:52:32;;;;;;;11.80;10.23;;;13.10;99.90;;;;;;4876017;28;93914;-31
2023/04/28 10:55:35;;;;;;;20.95;10.32;;;13.00;99.90;;;;;;4875647;28;94961;-32
2023/04/28 10:58:16;;;;;;;15.35;12.18;;;13.00;99.90;;;;;;4874142;28;96111;-33
2023/04/28 11:00:44;;;;;;;16.95;11.57;;;13.00;99.90;;;;;;4874140;28;94766;-32
2023/04/28 11:03:50;;;;;;;17.97;13.37;;;13.10;99.90;;;;;;4874065;28;93618;-33
2023/04/28 11:06:34;;;;;;;19.63;12.02;;;13.20;99.90;;;;;;4872737;28;94765;-34
2023/04/28 11:09:16;;;;;;;16.27;11.35;;;13.30;99.90;;;;;;4871864;28;94497;-33
2023/04/28 11:12:00;;;;;;;14.63;12.27;;;13.30;99.90;;;;;;4873964;28;94222;-31
2023/04/28 11:14:32;;;;;;;14.80;11.43;;;13.40;99.90;;;;;;4873616;28;94701;-31
2023/04/28 11:17:23;;;;;;;12.25;10.07;;;13.30;99.90;;;;;;4870663;28;93256;-34
2023/04/28 11:19:50;;;;;;;16.60;11.75;;;13.30;99.90;;;;;;4875270;28;95035;-32
2023/04/28 11:22:15;;;;;;;14.02;12.48;;;13.40;99.90;;;;;;4875152;28;93685;-35
2023/04/28 11:24:53;;;;;;;15.27;11.65;;;13.30;99.90;;;;;;4875394;28;94893;-33
2023/04/28 11:27:26;;;;;;;12.05;10.82;;;13.30;99.90;;;;;;4860211;28;95713;-31
2023/04/28 11:29:52;;;;;;;14.45;12.18;;;13.40;99.90;;;;;;4865858;28;94976;-33
2023/04/28 11:32:27;;;;;;;17.98;11.68;;;13.50;99.90;;;;;;4872288;28;92752;-31
2023/04/28 11:34:52;;;;;;;12.25;10.98;;;13.50;99.90;;;;;;4857131;28;94431;-32
2023/04/28 11:37:20;;;;;;;13.38;11.73;;;13.60;99.90;;;;;;4856005;28;94358;-31
2023/04/28 11:39:46;;;;;;;14.07;12.70;;;13.60;99.90;;;;;;4856773;28;94208;-33
2023/04/28 11:42:11;;;;;;;16.65;12.55;;;13.70;99.90;;;;;;4865759;28;94607;-35
2023/04/28 11:44:37;;;;;;;14.57;11.77;;;13.70;99.90;;;;;;4873689;28;92462;-34
2023/04/28 11:47:04;;;;;;;15.60;12.18;;;13.70;99.90;;;;;;4869025;28;94677;-31
2023/04/28 11:49:40;;;;;;;15.27;12.40;;;13.80;99.90;;;;;;4855876;28;95254;-33
2023/04/28 11:52:07;;;;;;;13.13;11.30;;;13.90;99.90;;;;;;4856214;28;93604;-35
2023/04/28 11:54:33;;;;;;;14.38;12.43;;;13.90;99.90;;;;;;4856596;28;92633;-31
2023/04/28 11:57:03;;;;;;;14.23;12.07;;;13.90;99.90;;;;;;4865920;28;94808;-32
2023/04/28 11:59:35;;;;;;;13.02;11.73;;;13.90;99.90;;;;;;4875050;28;94910;-34
2023/04/28 12:02:02;;;;;;;13.70;12.32;;;13.80;99.90;;;;;;4865467;28;94228;-35
2023/04/28 12:04:29;;;;;;;14.13;12.40;;;13.80;99.90;;;;;;4855644;28;94445;-32
2023/04/28 12:07:01;;;;;;;14.52;10.85;;;13.80;99.90;;;;;;4857155;28;94545;-32
2023/04/28 12:09:28;;;;;;;13.95;11.68;;;13.80;99.90;;;;;;4881919;28;94550;-32
2023/04/28 12:11:59;;;;;;;17.20;11.68;;;13.90;99.90;;;;;;4856370;28;95073;-34
2023/04/28 12:14:25;;;;;;;14.40;12.82;;;14.00;99.90;;;;;;4856505;28;93163;-32
2023/04/28 12:16:52;;;;;;;15.60;11.32;;;14.00;99.90;;;;;;4861724;28;95788;-30
2023/04/28 12:19:19;;;;;;;15.50;12.65;;;14.00;99.90;;;;;;4873094;28;94920;-30
2023/04/28 12:21:59;;;;;;;12.25;10.93;;;14.00;99.90;;;;;;4862931;28;92215;-31
2023/04/28 12:24:25;;;;;;;11.98;10.75;;;14.10;99.90;;;;;;4867668;28;94283;-31
2023/04/28 12:26:52;;;;;;;12.52;11.25;;;14.00;99.90;;;;;;4869435;28;96350;-33
2023/04/28 12:29:40;;;;;;;12.85;11.50;;;13.90;99.90;;;;;;4875535;28;94460;-35
2023/04/28 12:32:07;;;;;;;13.18;11.35;;;13.90;99.90;;;;;;4876504;28;94239;-35
2023/04/28 12:34:34;;;;;;;14.23;11.53;;;13.90;99.90;;;;;;4876114;28;92391;-32
2023/04/28 12:37:01;;;;;;;13.32;12.00;;;13.90;99.90;;;;;;4876029;28;95146;-31
2023/04/28 12:39:27;;;;;;;18.30;12.95;;;13.90;99.90;;;;;;4872724;28;94298;-33